sensor_id;sensor_type;location;lat;lon;timestamp;P1;durP1;ratioP1;P2;durP2;ratioP2
72590;SDS011;60625;51.212;5.952;2022-11-03T00:01:11;7.70;;;1.00;;
72590;SDS011;60625;51.212;5.952;2022-11-03T00:06:11;11.70;;;1.50;;
72590;SDS011;60625;51.212;5.952;2022-11-03T00:11:13;12.20;;;1.40;;
72590;SDS011;60625;51.212;5.952;2022-11-03T00:16:14;6.40;;;1.00;;
72590;SDS011;60625;51.212;5.952;2022-11-03T00:21:14;10.80;;;1.30;;
72590;SDS011;60625;51.212;5.952;2022-11-03T00:26:26;11.00;;;1.40;;
72590;SDS011;60625;51.212;5.952;2022-11-03T00:31:29;16.00;;;1.60;;
72590;SDS011;60625;51.212;5.952;2022-11-03T00:36:38;9.50;;;1.20;;
72590;SDS011;60625;51.212;5.952;2022-11-03T00:41:40;8.70;;;1.50;;
72590;SDS011;60625;51.212;5.952;2022-11-03T00:46:40;9.60;;;1.30;;
72590;SDS011;60625;51.212;5.952;2022-11-03T00:51:41;8.20;;;1.60;;
72590;SDS011;60625;51.212;5.952;2022-11-03T00:56:41;13.00;;;1.80;;
72590;SDS011;60625;51.212;5.952;2022-11-03T01:01:43;12.20;;;1.50;;
72590;SDS011;60625;51.212;5.952;2022-11-03T01:06:49;7.90;;;1.10;;
72590;SDS011;60625;51.212;5.952;2022-11-03T01:12:01;9.40;;;1.30;;
72590;SDS011;60625;51.212;5.952;2022-11-03T01:17:06;11.00;;;1.00;;
72590;SDS011;60625;51.212;5.952;2022-11-03T01:22:08;8.20;;;1.00;;
72590;SDS011;60625;51.212;5.952;2022-11-03T01:27:11;12.30;;;1.40;;
72590;SDS011;60625;51.212;5.952;2022-11-03T01:32:13;14.30;;;1.20;;
72590;SDS011;60625;51.212;5.952;2022-11-03T01:37:14;10.90;;;1.20;;
72590;SDS011;60625;51.212;5.952;2022-11-03T01:42:14;9.10;;;1.50;;
72590;SDS011;60625;51.212;5.952;2022-11-03T01:47:22;12.30;;;1.60;;
72590;SDS011;60625;51.212;5.952;2022-11-03T01:52:33;7.40;;;0.80;;
72590;SDS011;60625;51.212;5.952;2022-11-03T01:57:41;7.90;;;1.00;;
72590;SDS011;60625;51.212;5.952;2022-11-03T02:02:44;10.60;;;1.20;;
72590;SDS011;60625;51.212;5.952;2022-11-03T02:07:52;7.00;;;1.10;;
72590;SDS011;60625;51.212;5.952;2022-11-03T02:12:57;10.80;;;1.50;;
72590;SDS011;60625;51.212;5.952;2022-11-03T02:17:58;14.10;;;1.30;;
72590;SDS011;60625;51.212;5.952;2022-11-03T02:28:29;8.50;;;1.20;;
72590;SDS011;60625;51.212;5.952;2022-11-03T02:33:42;9.90;;;1.70;;
72590;SDS011;60625;51.212;5.952;2022-11-03T02:39:14;11.80;;;0.80;;
72590;SDS011;60625;51.212;5.952;2022-11-03T02:44:19;5.90;;;1.10;;
72590;SDS011;60625;51.212;5.952;2022-11-03T02:49:19;12.80;;;1.20;;
72590;SDS011;60625;51.212;5.952;2022-11-03T02:54:24;5.80;;;0.60;;
72590;SDS011;60625;51.212;5.952;2022-11-03T02:59:47;9.80;;;1.20;;
72590;SDS011;60625;51.212;5.952;2022-11-03T03:04:55;6.60;;;1.40;;
72590;SDS011;60625;51.212;5.952;2022-11-03T03:15:21;7.70;;;1.00;;
72590;SDS011;60625;51.212;5.952;2022-11-03T03:20:36;10.00;;;1.30;;
72590;SDS011;60625;51.212;5.952;2022-11-03T03:25:45;6.40;;;1.20;;
72590;SDS011;60625;51.212;5.952;2022-11-03T03:30:51;5.90;;;1.00;;
72590;SDS011;60625;51.212;5.952;2022-11-03T03:35:55;9.60;;;1.20;;
72590;SDS011;60625;51.212;5.952;2022-11-03T03:40:58;10.80;;;0.90;;
72590;SDS011;60625;51.212;5.952;2022-11-03T03:46:03;8.00;;;1.50;;
72590;SDS011;60625;51.212;5.952;2022-11-03T03:51:06;6.00;;;0.60;;
72590;SDS011;60625;51.212;5.952;2022-11-03T03:56:06;8.00;;;1.30;;
72590;SDS011;60625;51.212;5.952;2022-11-03T04:01:10;8.20;;;1.40;;
72590;SDS011;60625;51.212;5.952;2022-11-03T04:06:11;8.60;;;1.40;;
72590;SDS011;60625;51.212;5.952;2022-11-03T04:11:12;10.00;;;0.90;;
72590;SDS011;60625;51.212;5.952;2022-11-03T04:16:31;8.50;;;1.40;;
72590;SDS011;60625;51.212;5.952;2022-11-03T04:21:50;7.50;;;1.30;;
72590;SDS011;60625;51.212;5.952;2022-11-03T04:27:35;9.10;;;1.90;;
72590;SDS011;60625;51.212;5.952;2022-11-03T04:32:36;9.80;;;1.50;;
72590;SDS011;60625;51.212;5.952;2022-11-03T04:37:37;7.30;;;1.10;;
72590;SDS011;60625;51.212;5.952;2022-11-03T04:42:38;9.70;;;0.80;;
72590;SDS011;60625;51.212;5.952;2022-11-03T04:47:38;14.10;;;1.30;;
72590;SDS011;60625;51.212;5.952;2022-11-03T04:52:38;12.90;;;1.10;;
72590;SDS011;60625;51.212;5.952;2022-11-03T04:57:39;11.50;;;1.50;;
72590;SDS011;60625;51.212;5.952;2022-11-03T05:02:41;8.10;;;1.00;;
72590;SDS011;60625;51.212;5.952;2022-11-03T05:07:43;7.40;;;1.20;;
72590;SDS011;60625;51.212;5.952;2022-11-03T05:12:46;12.40;;;1.80;;
72590;SDS011;60625;51.212;5.952;2022-11-03T05:17:47;8.30;;;1.50;;
72590;SDS011;60625;51.212;5.952;2022-11-03T05:22:47;10.20;;;1.20;;
72590;SDS011;60625;51.212;5.952;2022-11-03T05:27:48;14.00;;;2.40;;
72590;SDS011;60625;51.212;5.952;2022-11-03T05:32:48;7.90;;;1.20;;
72590;SDS011;60625;51.212;5.952;2022-11-03T05:37:49;10.60;;;1.90;;
72590;SDS011;60625;51.212;5.952;2022-11-03T05:42:53;11.50;;;1.50;;
72590;SDS011;60625;51.212;5.952;2022-11-03T05:48:02;13.20;;;1.50;;
72590;SDS011;60625;51.212;5.952;2022-11-03T05:53:24;6.50;;;1.10;;
72590;SDS011;60625;51.212;5.952;2022-11-03T05:58:31;10.00;;;1.20;;
72590;SDS011;60625;51.212;5.952;2022-11-03T06:03:35;10.40;;;2.40;;
72590;SDS011;60625;51.212;5.952;2022-11-03T06:08:36;8.30;;;1.40;;
72590;SDS011;60625;51.212;5.952;2022-11-03T06:13:37;9.90;;;1.70;;
72590;SDS011;60625;51.212;5.952;2022-11-03T06:18:37;8.30;;;1.00;;
72590;SDS011;60625;51.212;5.952;2022-11-03T06:23:39;7.70;;;0.90;;
72590;SDS011;60625;51.212;5.952;2022-11-03T06:28:40;11.20;;;1.70;;
72590;SDS011;60625;51.212;5.952;2022-11-03T06:33:41;11.00;;;1.40;;
72590;SDS011;60625;51.212;5.952;2022-11-03T06:38:44;14.30;;;1.40;;
72590;SDS011;60625;51.212;5.952;2022-11-03T06:43:48;10.40;;;2.00;;
72590;SDS011;60625;51.212;5.952;2022-11-03T06:48:49;7.10;;;1.00;;
72590;SDS011;60625;51.212;5.952;2022-11-03T06:53:51;8.80;;;1.70;;
72590;SDS011;60625;51.212;5.952;2022-11-03T06:58:53;14.10;;;1.90;;
72590;SDS011;60625;51.212;5.952;2022-11-03T07:03:57;15.40;;;2.00;;
72590;SDS011;60625;51.212;5.952;2022-11-03T07:09:03;12.40;;;1.70;;
72590;SDS011;60625;51.212;5.952;2022-11-03T07:14:17;9.20;;;1.40;;
72590;SDS011;60625;51.212;5.952;2022-11-03T07:19:25;10.50;;;1.80;;
72590;SDS011;60625;51.212;5.952;2022-11-03T07:29:35;12.30;;;1.30;;
72590;SDS011;60625;51.212;5.952;2022-11-03T07:34:35;8.90;;;1.30;;
72590;SDS011;60625;51.212;5.952;2022-11-03T07:39:37;9.00;;;1.30;;
72590;SDS011;60625;51.212;5.952;2022-11-03T07:44:39;13.20;;;1.90;;
72590;SDS011;60625;51.212;5.952;2022-11-03T07:49:40;9.40;;;1.50;;
72590;SDS011;60625;51.212;5.952;2022-11-03T07:54:41;10.30;;;1.50;;
72590;SDS011;60625;51.212;5.952;2022-11-03T07:59:44;8.80;;;1.30;;
72590;SDS011;60625;51.212;5.952;2022-11-03T08:04:47;14.60;;;2.00;;
72590;SDS011;60625;51.212;5.952;2022-11-03T08:09:50;11.60;;;1.20;;
72590;SDS011;60625;51.212;5.952;2022-11-03T08:14:51;9.80;;;1.50;;
72590;SDS011;60625;51.212;5.952;2022-11-03T08:19:51;12.50;;;1.60;;
72590;SDS011;60625;51.212;5.952;2022-11-03T08:24:52;7.50;;;0.90;;
72590;SDS011;60625;51.212;5.952;2022-11-03T08:29:52;8.60;;;1.40;;
72590;SDS011;60625;51.212;5.952;2022-11-03T08:34:52;8.60;;;1.30;;
72590;SDS011;60625;51.212;5.952;2022-11-03T08:39:53;12.00;;;1.50;;
72590;SDS011;60625;51.212;5.952;2022-11-03T08:44:53;9.90;;;1.30;;
72590;SDS011;60625;51.212;5.952;2022-11-03T08:49:54;7.60;;;1.20;;
72590;SDS011;60625;51.212;5.952;2022-11-03T08:54:54;10.40;;;1.70;;
72590;SDS011;60625;51.212;5.952;2022-11-03T08:59:55;8.40;;;1.20;;
72590;SDS011;60625;51.212;5.952;2022-11-03T09:04:56;8.10;;;1.00;;
72590;SDS011;60625;51.212;5.952;2022-11-03T09:09:57;11.40;;;1.40;;
72590;SDS011;60625;51.212;5.952;2022-11-03T09:14:57;6.40;;;1.10;;
72590;SDS011;60625;51.212;5.952;2022-11-03T09:19:57;7.90;;;1.20;;
72590;SDS011;60625;51.212;5.952;2022-11-03T09:24:58;6.90;;;1.40;;
72590;SDS011;60625;51.212;5.952;2022-11-03T09:29:58;6.40;;;1.40;;
72590;SDS011;60625;51.212;5.952;2022-11-03T09:34:59;6.10;;;0.90;;
72590;SDS011;60625;51.212;5.952;2022-11-03T09:39:59;9.70;;;1.60;;
72590;SDS011;60625;51.212;5.952;2022-11-03T09:45:00;4.60;;;1.30;;
72590;SDS011;60625;51.212;5.952;2022-11-03T09:50:02;7.00;;;1.40;;
72590;SDS011;60625;51.212;5.952;2022-11-03T09:55:12;10.70;;;1.40;;
72590;SDS011;60625;51.212;5.952;2022-11-03T10:00:18;6.40;;;1.30;;
72590;SDS011;60625;51.212;5.952;2022-11-03T10:05:25;11.10;;;1.50;;
72590;SDS011;60625;51.212;5.952;2022-11-03T10:10:30;8.20;;;1.60;;
72590;SDS011;60625;51.212;5.952;2022-11-03T10:15:31;8.60;;;1.50;;
72590;SDS011;60625;51.212;5.952;2022-11-03T10:20:31;8.50;;;1.30;;
72590;SDS011;60625;51.212;5.952;2022-11-03T10:25:42;10.50;;;1.50;;
72590;SDS011;60625;51.212;5.952;2022-11-03T10:30:57;6.80;;;1.40;;
72590;SDS011;60625;51.212;5.952;2022-11-03T10:36:02;5.30;;;1.20;;
72590;SDS011;60625;51.212;5.952;2022-11-03T10:41:20;6.40;;;1.20;;
72590;SDS011;60625;51.212;5.952;2022-11-03T10:46:22;8.10;;;1.30;;
72590;SDS011;60625;51.212;5.952;2022-11-03T10:51:23;6.10;;;1.20;;
72590;SDS011;60625;51.212;5.952;2022-11-03T10:56:24;7.00;;;1.20;;
72590;SDS011;60625;51.212;5.952;2022-11-03T11:01:25;7.20;;;2.00;;
72590;SDS011;60625;51.212;5.952;2022-11-03T11:06:29;8.10;;;2.30;;
72590;SDS011;60625;51.212;5.952;2022-11-03T11:11:30;9.70;;;2.40;;
72590;SDS011;60625;51.212;5.952;2022-11-03T11:16:57;7.20;;;2.20;;
72590;SDS011;60625;51.212;5.952;2022-11-03T11:22:00;9.30;;;2.50;;
72590;SDS011;60625;51.212;5.952;2022-11-03T11:27:01;12.70;;;3.30;;
72590;SDS011;60625;51.212;5.952;2022-11-03T11:37:43;10.40;;;2.80;;
72590;SDS011;60625;51.212;5.952;2022-11-03T11:48:16;10.10;;;2.70;;
72590;SDS011;60625;51.212;5.952;2022-11-03T11:53:21;12.10;;;2.50;;
72590;SDS011;60625;51.212;5.952;2022-11-03T11:58:40;8.10;;;2.10;;
72590;SDS011;60625;51.212;5.952;2022-11-03T12:03:42;10.80;;;2.10;;
72590;SDS011;60625;51.212;5.952;2022-11-03T12:08:44;11.10;;;2.60;;
72590;SDS011;60625;51.212;5.952;2022-11-03T12:13:47;7.20;;;1.80;;
72590;SDS011;60625;51.212;5.952;2022-11-03T12:18:50;6.30;;;2.10;;
72590;SDS011;60625;51.212;5.952;2022-11-03T12:23:51;8.20;;;2.10;;
72590;SDS011;60625;51.212;5.952;2022-11-03T12:28:52;11.00;;;1.60;;
72590;SDS011;60625;51.212;5.952;2022-11-03T12:33:53;8.20;;;1.70;;
72590;SDS011;60625;51.212;5.952;2022-11-03T12:38:53;8.50;;;1.60;;
72590;SDS011;60625;51.212;5.952;2022-11-03T12:43:54;6.90;;;1.80;;
72590;SDS011;60625;51.212;5.952;2022-11-03T12:48:55;12.00;;;1.80;;
72590;SDS011;60625;51.212;5.952;2022-11-03T12:53:56;8.50;;;1.30;;
72590;SDS011;60625;51.212;5.952;2022-11-03T12:58:56;10.40;;;1.70;;
72590;SDS011;60625;51.212;5.952;2022-11-03T13:03:56;7.30;;;1.80;;
72590;SDS011;60625;51.212;5.952;2022-11-03T13:08:57;8.50;;;1.60;;
72590;SDS011;60625;51.212;5.952;2022-11-03T13:13:57;6.80;;;1.50;;
72590;SDS011;60625;51.212;5.952;2022-11-03T13:18:58;5.70;;;1.60;;
72590;SDS011;60625;51.212;5.952;2022-11-03T13:23:58;7.40;;;1.30;;
72590;SDS011;60625;51.212;5.952;2022-11-03T13:28:59;6.90;;;1.20;;
72590;SDS011;60625;51.212;5.952;2022-11-03T13:34:00;5.80;;;1.20;;
72590;SDS011;60625;51.212;5.952;2022-11-03T13:39:00;5.20;;;1.20;;
72590;SDS011;60625;51.212;5.952;2022-11-03T13:44:01;4.90;;;1.30;;
72590;SDS011;60625;51.212;5.952;2022-11-03T13:49:01;5.90;;;1.00;;
72590;SDS011;60625;51.212;5.952;2022-11-03T13:54:02;6.50;;;1.50;;
72590;SDS011;60625;51.212;5.952;2022-11-03T13:59:02;7.90;;;2.00;;
72590;SDS011;60625;51.212;5.952;2022-11-03T14:04:03;6.80;;;1.80;;
72590;SDS011;60625;51.212;5.952;2022-11-03T14:09:04;7.40;;;1.40;;
72590;SDS011;60625;51.212;5.952;2022-11-03T14:14:05;7.20;;;2.00;;
72590;SDS011;60625;51.212;5.952;2022-11-03T14:19:05;12.80;;;3.20;;
72590;SDS011;60625;51.212;5.952;2022-11-03T14:24:06;13.00;;;3.80;;
72590;SDS011;60625;51.212;5.952;2022-11-03T14:29:06;10.20;;;3.60;;
72590;SDS011;60625;51.212;5.952;2022-11-03T14:34:07;11.30;;;2.10;;
72590;SDS011;60625;51.212;5.952;2022-11-03T14:39:08;7.30;;;1.90;;
72590;SDS011;60625;51.212;5.952;2022-11-03T14:44:08;14.90;;;2.10;;
72590;SDS011;60625;51.212;5.952;2022-11-03T14:49:09;10.60;;;2.10;;
72590;SDS011;60625;51.212;5.952;2022-11-03T14:54:09;9.30;;;2.40;;
72590;SDS011;60625;51.212;5.952;2022-11-03T14:59:10;6.80;;;1.60;;
72590;SDS011;60625;51.212;5.952;2022-11-03T15:04:10;5.70;;;1.80;;
72590;SDS011;60625;51.212;5.952;2022-11-03T15:09:12;5.50;;;1.40;;
72590;SDS011;60625;51.212;5.952;2022-11-03T15:14:14;6.40;;;1.80;;
72590;SDS011;60625;51.212;5.952;2022-11-03T15:19:14;8.10;;;2.30;;
72590;SDS011;60625;51.212;5.952;2022-11-03T15:24:14;11.60;;;2.00;;
72590;SDS011;60625;51.212;5.952;2022-11-03T15:29:15;5.50;;;1.20;;
72590;SDS011;60625;51.212;5.952;2022-11-03T15:34:15;5.50;;;1.60;;
72590;SDS011;60625;51.212;5.952;2022-11-03T15:39:16;4.60;;;1.80;;
72590;SDS011;60625;51.212;5.952;2022-11-03T15:44:17;5.90;;;1.60;;
72590;SDS011;60625;51.212;5.952;2022-11-03T15:49:17;6.00;;;1.10;;
72590;SDS011;60625;51.212;5.952;2022-11-03T15:54:17;6.40;;;1.40;;
72590;SDS011;60625;51.212;5.952;2022-11-03T15:59:18;5.40;;;1.70;;
72590;SDS011;60625;51.212;5.952;2022-11-03T16:04:18;5.10;;;1.60;;
72590;SDS011;60625;51.212;5.952;2022-11-03T16:09:19;7.90;;;1.40;;
72590;SDS011;60625;51.212;5.952;2022-11-03T16:14:19;6.00;;;1.90;;
72590;SDS011;60625;51.212;5.952;2022-11-03T16:19:20;5.30;;;1.20;;
72590;SDS011;60625;51.212;5.952;2022-11-03T16:24:20;6.30;;;1.60;;
72590;SDS011;60625;51.212;5.952;2022-11-03T16:29:21;8.60;;;2.10;;
72590;SDS011;60625;51.212;5.952;2022-11-03T16:34:21;6.60;;;2.20;;
72590;SDS011;60625;51.212;5.952;2022-11-03T16:39:21;9.50;;;2.30;;
72590;SDS011;60625;51.212;5.952;2022-11-03T16:44:23;10.20;;;4.00;;
72590;SDS011;60625;51.212;5.952;2022-11-03T16:49:23;22.80;;;10.40;;
72590;SDS011;60625;51.212;5.952;2022-11-03T16:54:24;8.90;;;4.20;;
72590;SDS011;60625;51.212;5.952;2022-11-03T16:59:24;5.30;;;2.50;;
72590;SDS011;60625;51.212;5.952;2022-11-03T17:04:25;6.80;;;2.50;;
72590;SDS011;60625;51.212;5.952;2022-11-03T17:09:25;5.50;;;1.60;;
72590;SDS011;60625;51.212;5.952;2022-11-03T17:14:26;5.20;;;1.80;;
72590;SDS011;60625;51.212;5.952;2022-11-03T17:19:27;4.90;;;2.20;;
72590;SDS011;60625;51.212;5.952;2022-11-03T17:24:28;7.10;;;2.10;;
72590;SDS011;60625;51.212;5.952;2022-11-03T17:29:35;7.20;;;1.90;;
72590;SDS011;60625;51.212;5.952;2022-11-03T17:34:37;4.00;;;2.00;;
72590;SDS011;60625;51.212;5.952;2022-11-03T17:39:38;4.20;;;1.50;;
72590;SDS011;60625;51.212;5.952;2022-11-03T17:44:42;6.30;;;2.40;;
72590;SDS011;60625;51.212;5.952;2022-11-03T17:49:48;7.80;;;2.20;;
72590;SDS011;60625;51.212;5.952;2022-11-03T17:54:49;5.40;;;2.10;;
72590;SDS011;60625;51.212;5.952;2022-11-03T17:59:52;5.30;;;1.60;;
72590;SDS011;60625;51.212;5.952;2022-11-03T18:10:26;5.50;;;2.10;;
72590;SDS011;60625;51.212;5.952;2022-11-03T18:15:30;5.80;;;2.10;;
72590;SDS011;60625;51.212;5.952;2022-11-03T18:20:32;6.80;;;1.80;;
72590;SDS011;60625;51.212;5.952;2022-11-03T18:25:32;5.80;;;1.80;;
72590;SDS011;60625;51.212;5.952;2022-11-03T18:30:33;4.80;;;1.70;;
72590;SDS011;60625;51.212;5.952;2022-11-03T18:35:34;6.40;;;1.70;;
72590;SDS011;60625;51.212;5.952;2022-11-03T18:40:35;7.10;;;2.10;;
72590;SDS011;60625;51.212;5.952;2022-11-03T18:45:36;4.90;;;1.70;;
72590;SDS011;60625;51.212;5.952;2022-11-03T18:50:36;3.90;;;1.40;;
72590;SDS011;60625;51.212;5.952;2022-11-03T18:55:36;3.60;;;0.90;;
72590;SDS011;60625;51.212;5.952;2022-11-03T19:00:37;5.30;;;1.10;;
72590;SDS011;60625;51.212;5.952;2022-11-03T19:05:37;6.20;;;1.10;;
72590;SDS011;60625;51.212;5.952;2022-11-03T19:10:38;4.50;;;1.40;;
72590;SDS011;60625;51.212;5.952;2022-11-03T19:15:39;4.10;;;1.00;;
72590;SDS011;60625;51.212;5.952;2022-11-03T19:20:40;3.90;;;1.00;;
72590;SDS011;60625;51.212;5.952;2022-11-03T19:25:41;3.60;;;1.00;;
72590;SDS011;60625;51.212;5.952;2022-11-03T19:30:42;4.30;;;1.20;;
72590;SDS011;60625;51.212;5.952;2022-11-03T19:35:43;4.00;;;1.30;;
72590;SDS011;60625;51.212;5.952;2022-11-03T19:40:45;3.40;;;0.90;;
72590;SDS011;60625;51.212;5.952;2022-11-03T19:46:07;3.80;;;1.30;;
72590;SDS011;60625;51.212;5.952;2022-11-03T19:51:11;4.00;;;1.50;;
72590;SDS011;60625;51.212;5.952;2022-11-03T19:56:13;6.90;;;2.40;;
72590;SDS011;60625;51.212;5.952;2022-11-03T20:01:14;5.10;;;1.60;;
72590;SDS011;60625;51.212;5.952;2022-11-03T20:06:14;6.60;;;2.80;;
72590;SDS011;60625;51.212;5.952;2022-11-03T20:11:16;4.80;;;1.70;;
72590;SDS011;60625;51.212;5.952;2022-11-03T20:16:17;4.70;;;1.80;;
72590;SDS011;60625;51.212;5.952;2022-11-03T20:21:18;4.20;;;1.60;;
72590;SDS011;60625;51.212;5.952;2022-11-03T20:26:21;5.20;;;1.90;;
72590;SDS011;60625;51.212;5.952;2022-11-03T20:31:23;4.10;;;1.20;;
72590;SDS011;60625;51.212;5.952;2022-11-03T20:36:23;3.60;;;1.50;;
72590;SDS011;60625;51.212;5.952;2022-11-03T20:41:26;4.90;;;1.60;;
72590;SDS011;60625;51.212;5.952;2022-11-03T20:46:30;5.80;;;1.60;;
72590;SDS011;60625;51.212;5.952;2022-11-03T20:51:35;4.50;;;1.60;;
72590;SDS011;60625;51.212;5.952;2022-11-03T20:56:39;4.20;;;1.60;;
72590;SDS011;60625;51.212;5.952;2022-11-03T21:01:40;4.80;;;1.20;;
72590;SDS011;60625;51.212;5.952;2022-11-03T21:06:40;5.10;;;1.70;;
72590;SDS011;60625;51.212;5.952;2022-11-03T21:11:41;6.80;;;1.70;;
72590;SDS011;60625;51.212;5.952;2022-11-03T21:16:43;5.70;;;2.20;;
72590;SDS011;60625;51.212;5.952;2022-11-03T21:27:17;4.60;;;1.80;;
72590;SDS011;60625;51.212;5.952;2022-11-03T21:32:18;4.60;;;1.70;;
72590;SDS011;60625;51.212;5.952;2022-11-03T21:37:20;4.60;;;1.60;;
72590;SDS011;60625;51.212;5.952;2022-11-03T21:42:21;5.20;;;1.50;;
72590;SDS011;60625;51.212;5.952;2022-11-03T21:47:40;5.20;;;1.30;;
72590;SDS011;60625;51.212;5.952;2022-11-03T21:53:01;4.00;;;1.30;;
72590;SDS011;60625;51.212;5.952;2022-11-03T21:58:02;5.10;;;1.60;;
72590;SDS011;60625;51.212;5.952;2022-11-03T22:03:03;3.10;;;1.00;;
72590;SDS011;60625;51.212;5.952;2022-11-03T22:08:06;3.50;;;0.90;;
72590;SDS011;60625;51.212;5.952;2022-11-03T22:13:07;2.80;;;0.70;;
72590;SDS011;60625;51.212;5.952;2022-11-03T22:18:08;3.20;;;0.70;;
72590;SDS011;60625;51.212;5.952;2022-11-03T22:23:08;4.10;;;0.80;;
72590;SDS011;60625;51.212;5.952;2022-11-03T22:28:28;2.60;;;0.80;;
72590;SDS011;60625;51.212;5.952;2022-11-03T22:33:28;5.30;;;1.00;;
72590;SDS011;60625;51.212;5.952;2022-11-03T22:38:28;3.50;;;0.80;;
72590;SDS011;60625;51.212;5.952;2022-11-03T22:43:47;3.40;;;0.80;;
72590;SDS011;60625;51.212;5.952;2022-11-03T22:49:06;2.60;;;0.70;;
72590;SDS011;60625;51.212;5.952;2022-11-03T22:54:07;1.70;;;0.40;;
72590;SDS011;60625;51.212;5.952;2022-11-03T22:59:10;2.50;;;0.30;;
72590;SDS011;60625;51.212;5.952;2022-11-03T23:04:11;4.00;;;1.00;;
72590;SDS011;60625;51.212;5.952;2022-11-03T23:09:12;3.90;;;1.20;;
72590;SDS011;60625;51.212;5.952;2022-11-03T23:14:12;2.40;;;0.80;;
72590;SDS011;60625;51.212;5.952;2022-11-03T23:19:14;5.00;;;0.70;;
72590;SDS011;60625;51.212;5.952;2022-11-03T23:24:33;3.50;;;0.70;;
72590;SDS011;60625;51.212;5.952;2022-11-03T23:29:52;4.00;;;0.90;;
72590;SDS011;60625;51.212;5.952;2022-11-03T23:34:53;3.90;;;0.80;;
72590;SDS011;60625;51.212;5.952;2022-11-03T23:39:54;3.30;;;1.10;;
72590;SDS011;60625;51.212;5.952;2022-11-03T23:44:54;3.10;;;1.10;;
72590;SDS011;60625;51.212;5.952;2022-11-03T23:50:13;2.80;;;1.10;;
72590;SDS011;60625;51.212;5.952;2022-11-03T23:55:14;4.10;;;1.30;;
